EPRZ/RZE METAR and TAF weather

Enter ICAO airport designator
Station Type Date Time Source
EPRZ METAR 2021/09/28 17:00 UTC NOAA

EPRZ 281700Z 05006KT 9999 BKN040 13/08 Q1024


Station Type Date Time Source
EPRZ Decoded METAR 2021/09/28 17:00 UTC NOAA

Rzeszow-Jasionka, Poland (EPRZ) 50-06N 022-03E 202M
Sep 28, 2021 - 01:00 PM EDT / 2021.09.28 1700 UTC
Wind: from the NE (050 degrees) at 7 MPH (6 KT):0
Visibility: greater than 7 mile(s):0
Sky conditions: mostly cloudy
Temperature: 55 F (13 C)
Dew Point: 46 F (8 C)
Relative Humidity: 71%
Pressure (altimeter): 30.24 in. Hg (1024 hPa)
ob: EPRZ 281700Z 05006KT 9999 BKN040 13/08 Q1024
cycle: 17

Station Type Date Time Source
EPRZ TAF 2021/09/28 12:33 UTC NOAA

TAF EPRZ 281130Z 2812/2912 10010KT 9999 SCT033

Example: see airport list